sensor_id;sensor_type;location;lat;lon;timestamp;P1;durP1;ratioP1;P2;durP2;ratioP2
66139;SDS011;52945;51.908;8.364;2022-07-29T00:00:58;3.15;;;1.00;;
66139;SDS011;52945;51.908;8.364;2022-07-29T00:03:59;1.13;;;0.95;;
66139;SDS011;52945;51.908;8.364;2022-07-29T00:06:59;1.80;;;1.08;;
66139;SDS011;52945;51.908;8.364;2022-07-29T00:10:00;0.80;;;0.80;;
66139;SDS011;52945;51.908;8.364;2022-07-29T00:13:00;2.50;;;1.30;;
66139;SDS011;52945;51.908;8.364;2022-07-29T00:16:02;2.40;;;1.40;;
66139;SDS011;52945;51.908;8.364;2022-07-29T00:19:03;1.38;;;1.05;;
66139;SDS011;52945;51.908;8.364;2022-07-29T00:22:04;3.08;;;1.20;;
66139;SDS011;52945;51.908;8.364;2022-07-29T00:25:05;1.95;;;0.93;;
66139;SDS011;52945;51.908;8.364;2022-07-29T00:28:07;2.25;;;1.15;;
66139;SDS011;52945;51.908;8.364;2022-07-29T00:31:08;4.60;;;1.42;;
66139;SDS011;52945;51.908;8.364;2022-07-29T00:34:09;3.38;;;1.15;;
66139;SDS011;52945;51.908;8.364;2022-07-29T00:37:29;1.08;;;0.98;;
66139;SDS011;52945;51.908;8.364;2022-07-29T00:40:30;2.15;;;1.10;;
66139;SDS011;52945;51.908;8.364;2022-07-29T00:43:31;2.08;;;1.10;;
66139;SDS011;52945;51.908;8.364;2022-07-29T00:46:31;3.42;;;1.42;;
66139;SDS011;52945;51.908;8.364;2022-07-29T00:49:32;2.28;;;1.13;;
66139;SDS011;52945;51.908;8.364;2022-07-29T00:52:34;1.90;;;1.10;;
66139;SDS011;52945;51.908;8.364;2022-07-29T00:55:36;2.88;;;1.25;;
66139;SDS011;52945;51.908;8.364;2022-07-29T00:58:37;2.03;;;1.45;;
66139;SDS011;52945;51.908;8.364;2022-07-29T01:01:38;2.47;;;1.13;;
66139;SDS011;52945;51.908;8.364;2022-07-29T01:04:39;3.45;;;1.40;;
66139;SDS011;52945;51.908;8.364;2022-07-29T01:07:40;1.38;;;1.02;;
66139;SDS011;52945;51.908;8.364;2022-07-29T01:10:41;3.33;;;1.17;;
66139;SDS011;52945;51.908;8.364;2022-07-29T01:13:44;3.80;;;1.17;;
66139;SDS011;52945;51.908;8.364;2022-07-29T01:17:00;2.00;;;1.25;;
66139;SDS011;52945;51.908;8.364;2022-07-29T01:29:45;2.88;;;1.25;;
66139;SDS011;52945;51.908;8.364;2022-07-29T01:32:52;1.52;;;1.25;;
66139;SDS011;52945;51.908;8.364;2022-07-29T01:35:56;1.48;;;1.17;;
66139;SDS011;52945;51.908;8.364;2022-07-29T01:42:21;1.70;;;1.20;;
66139;SDS011;52945;51.908;8.364;2022-07-29T01:45:30;1.85;;;1.13;;
66139;SDS011;52945;51.908;8.364;2022-07-29T01:51:51;1.17;;;1.08;;
66139;SDS011;52945;51.908;8.364;2022-07-29T01:54:58;2.20;;;1.00;;
66139;SDS011;52945;51.908;8.364;2022-07-29T01:58:03;3.42;;;1.08;;
66139;SDS011;52945;51.908;8.364;2022-07-29T02:01:08;1.02;;;0.90;;
66139;SDS011;52945;51.908;8.364;2022-07-29T02:04:10;3.15;;;1.15;;
66139;SDS011;52945;51.908;8.364;2022-07-29T02:07:12;2.30;;;1.00;;
66139;SDS011;52945;51.908;8.364;2022-07-29T02:10:17;4.50;;;1.30;;
66139;SDS011;52945;51.908;8.364;2022-07-29T02:13:21;1.17;;;1.08;;
66139;SDS011;52945;51.908;8.364;2022-07-29T02:16:23;1.70;;;1.10;;
66139;SDS011;52945;51.908;8.364;2022-07-29T02:19:28;2.03;;;1.02;;
66139;SDS011;52945;51.908;8.364;2022-07-29T02:22:31;2.88;;;1.38;;
66139;SDS011;52945;51.908;8.364;2022-07-29T02:25:35;3.22;;;1.20;;
66139;SDS011;52945;51.908;8.364;2022-07-29T02:28:38;2.65;;;1.23;;
66139;SDS011;52945;51.908;8.364;2022-07-29T02:31:40;4.20;;;1.70;;
66139;SDS011;52945;51.908;8.364;2022-07-29T02:34:43;2.22;;;1.42;;
66139;SDS011;52945;51.908;8.364;2022-07-29T02:37:46;1.65;;;1.30;;
66139;SDS011;52945;51.908;8.364;2022-07-29T02:41:12;2.35;;;1.33;;
66139;SDS011;52945;51.908;8.364;2022-07-29T02:44:20;2.67;;;1.20;;
66139;SDS011;52945;51.908;8.364;2022-07-29T02:47:25;2.38;;;1.20;;
66139;SDS011;52945;51.908;8.364;2022-07-29T02:50:35;1.80;;;1.00;;
66139;SDS011;52945;51.908;8.364;2022-07-29T02:53:39;2.35;;;0.90;;
66139;SDS011;52945;51.908;8.364;2022-07-29T02:56:42;2.95;;;1.10;;
66139;SDS011;52945;51.908;8.364;2022-07-29T02:59:45;3.45;;;1.15;;
66139;SDS011;52945;51.908;8.364;2022-07-29T03:02:50;2.83;;;1.25;;
66139;SDS011;52945;51.908;8.364;2022-07-29T03:05:57;1.73;;;1.17;;
66139;SDS011;52945;51.908;8.364;2022-07-29T03:08:59;2.72;;;1.50;;
66139;SDS011;52945;51.908;8.364;2022-07-29T03:12:01;1.52;;;1.35;;
66139;SDS011;52945;51.908;8.364;2022-07-29T03:15:02;1.50;;;1.27;;
66139;SDS011;52945;51.908;8.364;2022-07-29T03:18:03;2.25;;;1.35;;
66139;SDS011;52945;51.908;8.364;2022-07-29T03:21:05;2.70;;;1.30;;
66139;SDS011;52945;51.908;8.364;2022-07-29T03:24:06;1.20;;;1.10;;
66139;SDS011;52945;51.908;8.364;2022-07-29T03:27:06;2.13;;;1.13;;
66139;SDS011;52945;51.908;8.364;2022-07-29T03:30:07;1.33;;;1.23;;
66139;SDS011;52945;51.908;8.364;2022-07-29T03:33:09;1.67;;;1.10;;
66139;SDS011;52945;51.908;8.364;2022-07-29T03:36:09;1.17;;;0.98;;
66139;SDS011;52945;51.908;8.364;2022-07-29T03:39:10;2.45;;;1.58;;
66139;SDS011;52945;51.908;8.364;2022-07-29T03:42:16;2.00;;;1.10;;
66139;SDS011;52945;51.908;8.364;2022-07-29T03:45:19;1.17;;;1.08;;
66139;SDS011;52945;51.908;8.364;2022-07-29T03:48:21;2.55;;;1.20;;
66139;SDS011;52945;51.908;8.364;2022-07-29T03:51:25;4.00;;;1.10;;
66139;SDS011;52945;51.908;8.364;2022-07-29T03:54:26;3.45;;;1.15;;
66139;SDS011;52945;51.908;8.364;2022-07-29T03:57:27;1.55;;;1.40;;
66139;SDS011;52945;51.908;8.364;2022-07-29T04:00:30;1.48;;;1.33;;
66139;SDS011;52945;51.908;8.364;2022-07-29T04:03:33;0.98;;;0.85;;
66139;SDS011;52945;51.908;8.364;2022-07-29T04:06:38;3.88;;;1.38;;
66139;SDS011;52945;51.908;8.364;2022-07-29T04:09:40;1.40;;;1.30;;
66139;SDS011;52945;51.908;8.364;2022-07-29T04:12:41;3.25;;;1.30;;
66139;SDS011;52945;51.908;8.364;2022-07-29T04:15:42;4.50;;;1.50;;
66139;SDS011;52945;51.908;8.364;2022-07-29T04:18:43;2.20;;;1.52;;
66139;SDS011;52945;51.908;8.364;2022-07-29T04:21:43;2.13;;;1.30;;
66139;SDS011;52945;51.908;8.364;2022-07-29T04:24:45;2.90;;;1.20;;
66139;SDS011;52945;51.908;8.364;2022-07-29T04:27:45;3.10;;;1.30;;
66139;SDS011;52945;51.908;8.364;2022-07-29T04:31:01;2.95;;;1.20;;
66139;SDS011;52945;51.908;8.364;2022-07-29T04:34:01;2.72;;;1.05;;
66139;SDS011;52945;51.908;8.364;2022-07-29T04:37:02;2.90;;;1.02;;
66139;SDS011;52945;51.908;8.364;2022-07-29T04:40:03;2.38;;;1.23;;
66139;SDS011;52945;51.908;8.364;2022-07-29T04:43:04;1.70;;;1.10;;
66139;SDS011;52945;51.908;8.364;2022-07-29T04:46:05;2.75;;;1.30;;
66139;SDS011;52945;51.908;8.364;2022-07-29T04:49:06;1.95;;;1.15;;
66139;SDS011;52945;51.908;8.364;2022-07-29T04:52:07;3.50;;;1.10;;
66139;SDS011;52945;51.908;8.364;2022-07-29T04:55:08;2.25;;;1.33;;
66139;SDS011;52945;51.908;8.364;2022-07-29T04:58:09;3.10;;;1.13;;
66139;SDS011;52945;51.908;8.364;2022-07-29T05:01:10;3.08;;;1.40;;
66139;SDS011;52945;51.908;8.364;2022-07-29T05:04:10;2.03;;;1.25;;
66139;SDS011;52945;51.908;8.364;2022-07-29T05:07:11;3.75;;;1.33;;
66139;SDS011;52945;51.908;8.364;2022-07-29T05:10:11;2.50;;;1.33;;
66139;SDS011;52945;51.908;8.364;2022-07-29T05:13:12;4.47;;;1.75;;
66139;SDS011;52945;51.908;8.364;2022-07-29T05:16:13;1.77;;;1.25;;
66139;SDS011;52945;51.908;8.364;2022-07-29T05:19:14;2.25;;;1.10;;
66139;SDS011;52945;51.908;8.364;2022-07-29T05:22:14;3.33;;;1.10;;
66139;SDS011;52945;51.908;8.364;2022-07-29T05:25:15;1.13;;;1.02;;
66139;SDS011;52945;51.908;8.364;2022-07-29T05:28:15;2.63;;;1.38;;
66139;SDS011;52945;51.908;8.364;2022-07-29T05:31:16;2.13;;;1.30;;
66139;SDS011;52945;51.908;8.364;2022-07-29T05:34:17;2.60;;;1.30;;
66139;SDS011;52945;51.908;8.364;2022-07-29T05:37:19;2.00;;;1.40;;
66139;SDS011;52945;51.908;8.364;2022-07-29T05:40:19;1.83;;;1.13;;
66139;SDS011;52945;51.908;8.364;2022-07-29T05:43:20;2.15;;;1.33;;
66139;SDS011;52945;51.908;8.364;2022-07-29T05:46:21;1.55;;;1.02;;
66139;SDS011;52945;51.908;8.364;2022-07-29T05:49:21;4.30;;;1.20;;
66139;SDS011;52945;51.908;8.364;2022-07-29T05:52:22;6.72;;;1.52;;
66139;SDS011;52945;51.908;8.364;2022-07-29T05:55:23;3.58;;;1.52;;
66139;SDS011;52945;51.908;8.364;2022-07-29T05:58:24;2.25;;;1.42;;
66139;SDS011;52945;51.908;8.364;2022-07-29T06:01:24;4.78;;;1.33;;
66139;SDS011;52945;51.908;8.364;2022-07-29T06:04:26;15.77;;;2.72;;
66139;SDS011;52945;51.908;8.364;2022-07-29T06:07:26;13.43;;;2.10;;
66139;SDS011;52945;51.908;8.364;2022-07-29T06:10:27;4.20;;;1.52;;
66139;SDS011;52945;51.908;8.364;2022-07-29T06:13:27;3.05;;;1.30;;
66139;SDS011;52945;51.908;8.364;2022-07-29T06:16:28;4.53;;;1.55;;
66139;SDS011;52945;51.908;8.364;2022-07-29T06:19:29;4.13;;;1.40;;
66139;SDS011;52945;51.908;8.364;2022-07-29T06:22:30;4.13;;;1.63;;
66139;SDS011;52945;51.908;8.364;2022-07-29T06:25:30;1.50;;;1.10;;
66139;SDS011;52945;51.908;8.364;2022-07-29T06:28:34;3.72;;;1.27;;
66139;SDS011;52945;51.908;8.364;2022-07-29T06:31:35;3.30;;;1.70;;
66139;SDS011;52945;51.908;8.364;2022-07-29T06:34:35;2.05;;;1.45;;
66139;SDS011;52945;51.908;8.364;2022-07-29T06:37:36;3.88;;;1.63;;
66139;SDS011;52945;51.908;8.364;2022-07-29T06:40:38;10.40;;;2.08;;
66139;SDS011;52945;51.908;8.364;2022-07-29T06:44:22;3.75;;;1.73;;
66139;SDS011;52945;51.908;8.364;2022-07-29T06:47:22;3.25;;;1.30;;
66139;SDS011;52945;51.908;8.364;2022-07-29T06:50:23;2.92;;;1.27;;
66139;SDS011;52945;51.908;8.364;2022-07-29T06:53:23;5.85;;;2.08;;
66139;SDS011;52945;51.908;8.364;2022-07-29T06:56:24;1.88;;;1.40;;
66139;SDS011;52945;51.908;8.364;2022-07-29T06:59:25;3.72;;;1.70;;
66139;SDS011;52945;51.908;8.364;2022-07-29T07:02:25;3.38;;;1.30;;
66139;SDS011;52945;51.908;8.364;2022-07-29T07:05:26;2.83;;;1.20;;
66139;SDS011;52945;51.908;8.364;2022-07-29T07:08:26;4.47;;;1.50;;
66139;SDS011;52945;51.908;8.364;2022-07-29T07:11:27;2.15;;;1.17;;
66139;SDS011;52945;51.908;8.364;2022-07-29T07:14:28;4.55;;;1.40;;
66139;SDS011;52945;51.908;8.364;2022-07-29T07:17:29;2.05;;;1.30;;
66139;SDS011;52945;51.908;8.364;2022-07-29T07:20:30;1.20;;;1.10;;
66139;SDS011;52945;51.908;8.364;2022-07-29T07:23:30;3.90;;;1.42;;
66139;SDS011;52945;51.908;8.364;2022-07-29T07:26:31;3.15;;;1.55;;
66139;SDS011;52945;51.908;8.364;2022-07-29T07:29:32;2.55;;;1.13;;
66139;SDS011;52945;51.908;8.364;2022-07-29T07:32:33;2.08;;;1.50;;
66139;SDS011;52945;51.908;8.364;2022-07-29T07:35:34;2.50;;;1.27;;
66139;SDS011;52945;51.908;8.364;2022-07-29T07:38:34;1.67;;;1.27;;
66139;SDS011;52945;51.908;8.364;2022-07-29T07:41:35;2.38;;;1.35;;
66139;SDS011;52945;51.908;8.364;2022-07-29T07:44:36;1.33;;;1.17;;
66139;SDS011;52945;51.908;8.364;2022-07-29T07:47:37;3.08;;;1.25;;
66139;SDS011;52945;51.908;8.364;2022-07-29T07:50:38;2.20;;;1.25;;
66139;SDS011;52945;51.908;8.364;2022-07-29T07:53:38;2.85;;;1.30;;
66139;SDS011;52945;51.908;8.364;2022-07-29T07:56:39;2.45;;;1.30;;
66139;SDS011;52945;51.908;8.364;2022-07-29T07:59:40;2.67;;;1.45;;
66139;SDS011;52945;51.908;8.364;2022-07-29T08:02:41;1.80;;;1.13;;
66139;SDS011;52945;51.908;8.364;2022-07-29T08:05:43;1.70;;;1.40;;
66139;SDS011;52945;51.908;8.364;2022-07-29T08:08:44;2.58;;;1.40;;
66139;SDS011;52945;51.908;8.364;2022-07-29T08:11:44;1.67;;;1.30;;
66139;SDS011;52945;51.908;8.364;2022-07-29T08:14:45;3.10;;;1.55;;
66139;SDS011;52945;51.908;8.364;2022-07-29T08:17:45;3.38;;;1.40;;
66139;SDS011;52945;51.908;8.364;2022-07-29T08:20:46;2.10;;;1.52;;
66139;SDS011;52945;51.908;8.364;2022-07-29T08:23:46;3.20;;;1.52;;
66139;SDS011;52945;51.908;8.364;2022-07-29T08:26:50;5.15;;;1.45;;
66139;SDS011;52945;51.908;8.364;2022-07-29T08:29:51;1.88;;;1.30;;
66139;SDS011;52945;51.908;8.364;2022-07-29T08:32:51;2.22;;;1.38;;
66139;SDS011;52945;51.908;8.364;2022-07-29T08:35:53;1.50;;;1.30;;
66139;SDS011;52945;51.908;8.364;2022-07-29T08:38:53;3.22;;;1.50;;
66139;SDS011;52945;51.908;8.364;2022-07-29T08:41:54;2.35;;;1.30;;
66139;SDS011;52945;51.908;8.364;2022-07-29T08:44:54;5.05;;;1.25;;
66139;SDS011;52945;51.908;8.364;2022-07-29T08:47:56;4.18;;;1.30;;
66139;SDS011;52945;51.908;8.364;2022-07-29T08:50:57;2.65;;;1.35;;
66139;SDS011;52945;51.908;8.364;2022-07-29T08:53:57;2.10;;;1.30;;
66139;SDS011;52945;51.908;8.364;2022-07-29T08:56:59;3.63;;;1.27;;
66139;SDS011;52945;51.908;8.364;2022-07-29T09:00:00;1.75;;;1.65;;
66139;SDS011;52945;51.908;8.364;2022-07-29T09:03:04;2.95;;;1.65;;
66139;SDS011;52945;51.908;8.364;2022-07-29T09:06:05;2.08;;;1.35;;
66139;SDS011;52945;51.908;8.364;2022-07-29T09:09:07;2.00;;;1.30;;
66139;SDS011;52945;51.908;8.364;2022-07-29T09:12:08;2.92;;;1.63;;
66139;SDS011;52945;51.908;8.364;2022-07-29T09:15:11;2.22;;;1.30;;
66139;SDS011;52945;51.908;8.364;2022-07-29T09:18:11;1.85;;;1.23;;
66139;SDS011;52945;51.908;8.364;2022-07-29T09:21:14;4.95;;;1.65;;
66139;SDS011;52945;51.908;8.364;2022-07-29T09:27:35;3.22;;;1.60;;
66139;SDS011;52945;51.908;8.364;2022-07-29T09:30:38;3.20;;;1.50;;
66139;SDS011;52945;51.908;8.364;2022-07-29T09:33:51;1.77;;;1.35;;
66139;SDS011;52945;51.908;8.364;2022-07-29T09:36:52;2.58;;;1.25;;
66139;SDS011;52945;51.908;8.364;2022-07-29T09:39:54;2.83;;;1.45;;
66139;SDS011;52945;51.908;8.364;2022-07-29T09:42:55;1.75;;;1.13;;
66139;SDS011;52945;51.908;8.364;2022-07-29T09:46:09;2.15;;;1.48;;
66139;SDS011;52945;51.908;8.364;2022-07-29T09:49:12;3.00;;;1.65;;
66139;SDS011;52945;51.908;8.364;2022-07-29T09:52:14;2.83;;;1.73;;
66139;SDS011;52945;51.908;8.364;2022-07-29T09:55:15;2.13;;;1.38;;
66139;SDS011;52945;51.908;8.364;2022-07-29T09:58:17;2.40;;;1.40;;
66139;SDS011;52945;51.908;8.364;2022-07-29T10:01:26;4.57;;;1.30;;
66139;SDS011;52945;51.908;8.364;2022-07-29T10:04:37;2.42;;;1.35;;
66139;SDS011;52945;51.908;8.364;2022-07-29T10:07:49;2.58;;;1.40;;
66139;SDS011;52945;51.908;8.364;2022-07-29T10:10:50;2.50;;;1.27;;
66139;SDS011;52945;51.908;8.364;2022-07-29T10:13:50;3.95;;;1.48;;
66139;SDS011;52945;51.908;8.364;2022-07-29T10:16:51;4.28;;;1.48;;
66139;SDS011;52945;51.908;8.364;2022-07-29T10:19:53;2.08;;;1.30;;
66139;SDS011;52945;51.908;8.364;2022-07-29T10:22:55;4.00;;;1.50;;
66139;SDS011;52945;51.908;8.364;2022-07-29T10:25:56;3.55;;;1.50;;
66139;SDS011;52945;51.908;8.364;2022-07-29T10:28:57;4.68;;;1.50;;
66139;SDS011;52945;51.908;8.364;2022-07-29T10:39:00;1.65;;;1.40;;
66139;SDS011;52945;51.908;8.364;2022-07-29T10:45:23;3.22;;;1.40;;
66139;SDS011;52945;51.908;8.364;2022-07-29T10:48:23;2.47;;;1.52;;
66139;SDS011;52945;51.908;8.364;2022-07-29T10:51:24;2.28;;;1.40;;
66139;SDS011;52945;51.908;8.364;2022-07-29T10:57:43;2.72;;;1.42;;
66139;SDS011;52945;51.908;8.364;2022-07-29T11:01:30;3.88;;;1.55;;
66139;SDS011;52945;51.908;8.364;2022-07-29T11:20:58;3.17;;;1.45;;
66139;SDS011;52945;51.908;8.364;2022-07-29T11:24:12;3.28;;;1.55;;
66139;SDS011;52945;51.908;8.364;2022-07-29T11:27:19;2.13;;;1.50;;
66139;SDS011;52945;51.908;8.364;2022-07-29T11:30:27;2.65;;;1.40;;
66139;SDS011;52945;51.908;8.364;2022-07-29T11:37:36;1.83;;;1.52;;
66139;SDS011;52945;51.908;8.364;2022-07-29T11:40:37;5.78;;;1.80;;
66139;SDS011;52945;51.908;8.364;2022-07-29T11:43:54;1.60;;;1.45;;
66139;SDS011;52945;51.908;8.364;2022-07-29T11:46:58;2.05;;;1.40;;
66139;SDS011;52945;51.908;8.364;2022-07-29T11:50:00;3.20;;;1.88;;
66139;SDS011;52945;51.908;8.364;2022-07-29T11:53:09;3.00;;;1.40;;
66139;SDS011;52945;51.908;8.364;2022-07-29T11:56:14;2.95;;;1.45;;
66139;SDS011;52945;51.908;8.364;2022-07-29T11:59:21;3.28;;;1.50;;
66139;SDS011;52945;51.908;8.364;2022-07-29T12:02:22;2.38;;;1.40;;
66139;SDS011;52945;51.908;8.364;2022-07-29T12:05:39;3.55;;;1.50;;
66139;SDS011;52945;51.908;8.364;2022-07-29T12:08:42;2.92;;;1.60;;
66139;SDS011;52945;51.908;8.364;2022-07-29T12:11:43;4.18;;;1.80;;
66139;SDS011;52945;51.908;8.364;2022-07-29T12:14:44;2.65;;;1.40;;
66139;SDS011;52945;51.908;8.364;2022-07-29T12:17:47;2.40;;;1.30;;
66139;SDS011;52945;51.908;8.364;2022-07-29T12:20:48;2.47;;;1.63;;
66139;SDS011;52945;51.908;8.364;2022-07-29T12:23:57;1.98;;;1.63;;
66139;SDS011;52945;51.908;8.364;2022-07-29T12:26:58;2.22;;;1.33;;
66139;SDS011;52945;51.908;8.364;2022-07-29T12:30:00;3.03;;;1.63;;
66139;SDS011;52945;51.908;8.364;2022-07-29T12:36:14;2.42;;;1.55;;
66139;SDS011;52945;51.908;8.364;2022-07-29T12:39:16;2.28;;;1.75;;
66139;SDS011;52945;51.908;8.364;2022-07-29T12:42:17;2.10;;;1.65;;
66139;SDS011;52945;51.908;8.364;2022-07-29T12:45:27;2.65;;;1.65;;
66139;SDS011;52945;51.908;8.364;2022-07-29T12:48:36;3.25;;;1.65;;
66139;SDS011;52945;51.908;8.364;2022-07-29T12:51:39;4.03;;;2.03;;
66139;SDS011;52945;51.908;8.364;2022-07-29T12:54:46;3.13;;;1.75;;
66139;SDS011;52945;51.908;8.364;2022-07-29T12:57:47;5.20;;;1.80;;
66139;SDS011;52945;51.908;8.364;2022-07-29T13:00:57;2.38;;;1.70;;
66139;SDS011;52945;51.908;8.364;2022-07-29T13:04:04;2.10;;;1.80;;
66139;SDS011;52945;51.908;8.364;2022-07-29T13:07:06;3.75;;;1.77;;
66139;SDS011;52945;51.908;8.364;2022-07-29T13:10:11;2.33;;;1.60;;
66139;SDS011;52945;51.908;8.364;2022-07-29T13:13:16;2.55;;;1.90;;
66139;SDS011;52945;51.908;8.364;2022-07-29T13:16:17;2.90;;;1.88;;
66139;SDS011;52945;51.908;8.364;2022-07-29T13:19:18;4.47;;;1.83;;
66139;SDS011;52945;51.908;8.364;2022-07-29T13:22:20;2.22;;;1.65;;
66139;SDS011;52945;51.908;8.364;2022-07-29T13:25:28;3.72;;;2.00;;
66139;SDS011;52945;51.908;8.364;2022-07-29T13:28:30;2.55;;;1.92;;
66139;SDS011;52945;51.908;8.364;2022-07-29T13:31:31;2.95;;;1.92;;
66139;SDS011;52945;51.908;8.364;2022-07-29T13:34:31;3.20;;;1.70;;
66139;SDS011;52945;51.908;8.364;2022-07-29T13:37:32;4.05;;;2.00;;
66139;SDS011;52945;51.908;8.364;2022-07-29T13:40:34;3.42;;;2.05;;
66139;SDS011;52945;51.908;8.364;2022-07-29T13:43:35;2.90;;;1.73;;
66139;SDS011;52945;51.908;8.364;2022-07-29T13:46:36;6.32;;;3.03;;
66139;SDS011;52945;51.908;8.364;2022-07-29T13:49:36;6.15;;;3.10;;
66139;SDS011;52945;51.908;8.364;2022-07-29T13:52:37;3.28;;;1.77;;
66139;SDS011;52945;51.908;8.364;2022-07-29T13:55:38;3.63;;;1.90;;
66139;SDS011;52945;51.908;8.364;2022-07-29T13:58:38;3.97;;;2.22;;
66139;SDS011;52945;51.908;8.364;2022-07-29T14:01:39;3.80;;;2.13;;
66139;SDS011;52945;51.908;8.364;2022-07-29T14:04:43;3.65;;;2.30;;
66139;SDS011;52945;51.908;8.364;2022-07-29T14:07:43;3.67;;;2.10;;
66139;SDS011;52945;51.908;8.364;2022-07-29T14:10:44;3.05;;;2.20;;
66139;SDS011;52945;51.908;8.364;2022-07-29T14:13:44;2.95;;;1.70;;
66139;SDS011;52945;51.908;8.364;2022-07-29T14:16:45;3.05;;;1.92;;
66139;SDS011;52945;51.908;8.364;2022-07-29T14:19:46;4.78;;;2.17;;
66139;SDS011;52945;51.908;8.364;2022-07-29T14:22:47;4.82;;;2.00;;
66139;SDS011;52945;51.908;8.364;2022-07-29T14:25:48;4.82;;;2.58;;
66139;SDS011;52945;51.908;8.364;2022-07-29T14:28:49;4.63;;;2.50;;
66139;SDS011;52945;51.908;8.364;2022-07-29T14:31:50;3.88;;;2.65;;
66139;SDS011;52945;51.908;8.364;2022-07-29T14:34:50;3.80;;;1.90;;
66139;SDS011;52945;51.908;8.364;2022-07-29T14:37:51;4.30;;;2.40;;
66139;SDS011;52945;51.908;8.364;2022-07-29T14:40:51;4.88;;;2.45;;
66139;SDS011;52945;51.908;8.364;2022-07-29T14:43:52;3.58;;;1.95;;
66139;SDS011;52945;51.908;8.364;2022-07-29T14:46:53;2.15;;;1.90;;
66139;SDS011;52945;51.908;8.364;2022-07-29T14:49:53;3.45;;;2.30;;
66139;SDS011;52945;51.908;8.364;2022-07-29T14:52:54;2.88;;;2.10;;
66139;SDS011;52945;51.908;8.364;2022-07-29T14:55:55;4.60;;;2.13;;
66139;SDS011;52945;51.908;8.364;2022-07-29T14:58:56;3.72;;;2.10;;
66139;SDS011;52945;51.908;8.364;2022-07-29T15:01:57;3.25;;;2.10;;
66139;SDS011;52945;51.908;8.364;2022-07-29T15:04:58;3.30;;;2.28;;
66139;SDS011;52945;51.908;8.364;2022-07-29T15:07:59;4.15;;;2.00;;
66139;SDS011;52945;51.908;8.364;2022-07-29T15:10:59;4.22;;;2.35;;
66139;SDS011;52945;51.908;8.364;2022-07-29T15:14:00;3.53;;;2.30;;
66139;SDS011;52945;51.908;8.364;2022-07-29T15:17:01;2.72;;;2.25;;
66139;SDS011;52945;51.908;8.364;2022-07-29T15:20:02;3.35;;;2.30;;
66139;SDS011;52945;51.908;8.364;2022-07-29T15:23:03;8.15;;;2.83;;
66139;SDS011;52945;51.908;8.364;2022-07-29T15:26:04;6.28;;;2.70;;
66139;SDS011;52945;51.908;8.364;2022-07-29T15:29:04;3.97;;;2.33;;
66139;SDS011;52945;51.908;8.364;2022-07-29T15:32:05;4.30;;;2.00;;
66139;SDS011;52945;51.908;8.364;2022-07-29T15:35:06;4.65;;;2.30;;
66139;SDS011;52945;51.908;8.364;2022-07-29T15:38:07;7.18;;;2.63;;
66139;SDS011;52945;51.908;8.364;2022-07-29T15:41:08;6.15;;;2.00;;
66139;SDS011;52945;51.908;8.364;2022-07-29T15:44:08;2.70;;;2.28;;
66139;SDS011;52945;51.908;8.364;2022-07-29T15:47:09;4.10;;;2.30;;
66139;SDS011;52945;51.908;8.364;2022-07-29T15:50:10;4.03;;;2.20;;
66139;SDS011;52945;51.908;8.364;2022-07-29T15:53:14;6.72;;;2.10;;
66139;SDS011;52945;51.908;8.364;2022-07-29T15:56:15;4.13;;;2.45;;
66139;SDS011;52945;51.908;8.364;2022-07-29T15:59:16;5.03;;;2.10;;
66139;SDS011;52945;51.908;8.364;2022-07-29T16:02:17;3.63;;;1.65;;
66139;SDS011;52945;51.908;8.364;2022-07-29T16:05:18;3.05;;;2.00;;
66139;SDS011;52945;51.908;8.364;2022-07-29T16:08:18;3.67;;;1.80;;
66139;SDS011;52945;51.908;8.364;2022-07-29T16:11:19;4.10;;;1.95;;
66139;SDS011;52945;51.908;8.364;2022-07-29T16:14:20;5.70;;;2.03;;
66139;SDS011;52945;51.908;8.364;2022-07-29T16:17:21;3.33;;;1.85;;
66139;SDS011;52945;51.908;8.364;2022-07-29T16:20:21;3.53;;;1.70;;
66139;SDS011;52945;51.908;8.364;2022-07-29T16:23:22;4.30;;;2.00;;
66139;SDS011;52945;51.908;8.364;2022-07-29T16:26:23;2.75;;;1.65;;
66139;SDS011;52945;51.908;8.364;2022-07-29T16:29:24;3.83;;;1.92;;
66139;SDS011;52945;51.908;8.364;2022-07-29T16:32:24;2.40;;;1.90;;
66139;SDS011;52945;51.908;8.364;2022-07-29T16:35:25;3.28;;;2.10;;
66139;SDS011;52945;51.908;8.364;2022-07-29T16:38:26;3.03;;;1.92;;
66139;SDS011;52945;51.908;8.364;2022-07-29T16:41:26;5.20;;;1.90;;
66139;SDS011;52945;51.908;8.364;2022-07-29T16:44:28;4.65;;;1.95;;
66139;SDS011;52945;51.908;8.364;2022-07-29T16:47:29;4.03;;;2.15;;
66139;SDS011;52945;51.908;8.364;2022-07-29T16:50:29;6.38;;;2.20;;
66139;SDS011;52945;51.908;8.364;2022-07-29T16:53:30;4.07;;;2.00;;
66139;SDS011;52945;51.908;8.364;2022-07-29T16:56:31;3.40;;;1.83;;
66139;SDS011;52945;51.908;8.364;2022-07-29T16:59:32;5.53;;;2.28;;
66139;SDS011;52945;51.908;8.364;2022-07-29T17:02:33;3.72;;;1.90;;
66139;SDS011;52945;51.908;8.364;2022-07-29T17:05:33;3.40;;;1.90;;
66139;SDS011;52945;51.908;8.364;2022-07-29T17:08:34;2.67;;;1.95;;
66139;SDS011;52945;51.908;8.364;2022-07-29T17:11:35;4.03;;;1.92;;
66139;SDS011;52945;51.908;8.364;2022-07-29T17:14:36;3.47;;;1.85;;
66139;SDS011;52945;51.908;8.364;2022-07-29T17:17:37;5.03;;;2.22;;
66139;SDS011;52945;51.908;8.364;2022-07-29T17:20:40;5.10;;;2.20;;
66139;SDS011;52945;51.908;8.364;2022-07-29T17:23:41;3.28;;;2.10;;
66139;SDS011;52945;51.908;8.364;2022-07-29T17:26:41;3.00;;;2.38;;
66139;SDS011;52945;51.908;8.364;2022-07-29T17:29:43;3.60;;;2.30;;
66139;SDS011;52945;51.908;8.364;2022-07-29T17:32:44;10.05;;;3.13;;
66139;SDS011;52945;51.908;8.364;2022-07-29T17:35:45;3.88;;;2.20;;
66139;SDS011;52945;51.908;8.364;2022-07-29T17:39:06;5.20;;;2.90;;
66139;SDS011;52945;51.908;8.364;2022-07-29T17:42:08;3.75;;;2.58;;
66139;SDS011;52945;51.908;8.364;2022-07-29T17:45:10;5.15;;;2.75;;
66139;SDS011;52945;51.908;8.364;2022-07-29T17:48:11;5.38;;;2.92;;
66139;SDS011;52945;51.908;8.364;2022-07-29T17:51:12;6.45;;;3.38;;
66139;SDS011;52945;51.908;8.364;2022-07-29T17:54:12;3.40;;;2.45;;
66139;SDS011;52945;51.908;8.364;2022-07-29T17:57:13;4.68;;;2.53;;
66139;SDS011;52945;51.908;8.364;2022-07-29T18:00:14;3.58;;;2.50;;
66139;SDS011;52945;51.908;8.364;2022-07-29T18:03:15;5.85;;;2.90;;
66139;SDS011;52945;51.908;8.364;2022-07-29T18:06:15;7.97;;;2.70;;
66139;SDS011;52945;51.908;8.364;2022-07-29T18:09:16;4.40;;;2.78;;
66139;SDS011;52945;51.908;8.364;2022-07-29T18:12:17;5.70;;;2.95;;
66139;SDS011;52945;51.908;8.364;2022-07-29T18:15:18;7.18;;;3.22;;
66139;SDS011;52945;51.908;8.364;2022-07-29T18:18:18;4.68;;;2.90;;
66139;SDS011;52945;51.908;8.364;2022-07-29T18:21:19;3.40;;;2.60;;
66139;SDS011;52945;51.908;8.364;2022-07-29T18:24:20;5.93;;;2.63;;
66139;SDS011;52945;51.908;8.364;2022-07-29T18:27:26;5.82;;;3.10;;
66139;SDS011;52945;51.908;8.364;2022-07-29T18:30:27;7.18;;;3.42;;
66139;SDS011;52945;51.908;8.364;2022-07-29T18:33:29;5.18;;;2.92;;
66139;SDS011;52945;51.908;8.364;2022-07-29T18:36:31;5.40;;;3.05;;
66139;SDS011;52945;51.908;8.364;2022-07-29T18:39:32;4.78;;;3.00;;
66139;SDS011;52945;51.908;8.364;2022-07-29T18:42:32;4.35;;;3.22;;
66139;SDS011;52945;51.908;8.364;2022-07-29T18:45:33;4.82;;;3.80;;
66139;SDS011;52945;51.908;8.364;2022-07-29T18:48:34;5.72;;;2.92;;
66139;SDS011;52945;51.908;8.364;2022-07-29T18:51:35;3.75;;;2.88;;
66139;SDS011;52945;51.908;8.364;2022-07-29T18:54:36;7.22;;;3.20;;
66139;SDS011;52945;51.908;8.364;2022-07-29T18:57:36;5.47;;;3.13;;
66139;SDS011;52945;51.908;8.364;2022-07-29T19:00:37;6.07;;;3.05;;
66139;SDS011;52945;51.908;8.364;2022-07-29T19:03:38;4.25;;;2.40;;
66139;SDS011;52945;51.908;8.364;2022-07-29T19:06:38;5.07;;;2.83;;
66139;SDS011;52945;51.908;8.364;2022-07-29T19:09:39;4.95;;;2.83;;
66139;SDS011;52945;51.908;8.364;2022-07-29T19:12:40;5.43;;;3.10;;
66139;SDS011;52945;51.908;8.364;2022-07-29T19:15:41;6.50;;;3.30;;